Excello, Missouri
Current Conditions -  °F | °C
As of 9:55 AM on Monday 26 Jan 2015 (Local Time) from KIRK Reporting Station
Broken Clouds Broken Clouds  
Wind Chill: 25°   Ceiling: 11000
Heat Index: 34°   Visibility: 9mi
Dew Point: 31°   Wind: 12mph
Humidity: 89%   Direction: 210°SSW
Pressure: 29.9"   Gusts: NA
Location:  39.64°N, 92.48°W
Report Text: KIRK 261555Z AUTO 21010KT 9SM BKN110 01/M01 A2990 RMK AO2 SLP137 T00111006
Loading
Personal Weather Stations






























Interactive Weather Map New forecast layout! Learn more

10-Day Weather Forecast

Advertisements
Track Severe Weather on mobile